createdAt,value
2018-12-08T00:01:51.097Z,1.40
2018-12-08T00:04:19.500Z,1.37
2018-12-08T00:06:48.755Z,2.33
2018-12-08T00:09:17.150Z,2.10
2018-12-08T00:11:46.574Z,2.70
2018-12-08T00:14:14.948Z,2.77
2018-12-08T00:16:44.973Z,3.10
2018-12-08T00:19:13.383Z,2.33
2018-12-08T00:21:41.760Z,1.80
2018-12-08T00:24:10.233Z,2.63
2018-12-08T00:26:40.444Z,2.60
2018-12-08T00:29:09.919Z,2.47
2018-12-08T00:31:48.147Z,2.13
2018-12-08T00:34:17.791Z,2.17
2018-12-08T00:36:47.475Z,2.93
2018-12-08T00:39:15.827Z,3.00
2018-12-08T00:41:46.691Z,2.47
2018-12-08T00:44:15.740Z,2.77
2018-12-08T00:46:45.356Z,2.20
2018-12-08T00:49:14.337Z,2.07
2018-12-08T00:51:43.005Z,2.37
2018-12-08T00:54:11.363Z,2.07
2018-12-08T00:56:39.768Z,2.33
2018-12-08T00:59:09.411Z,1.63
2018-12-08T01:01:38.778Z,1.53
2018-12-08T01:04:07.604Z,1.50
2018-12-08T01:06:35.962Z,2.03
2018-12-08T01:09:09.306Z,2.57
2018-12-08T01:11:37.952Z,2.20
2018-12-08T01:14:07.276Z,2.87
2018-12-08T01:16:36.142Z,2.03
2018-12-08T01:19:04.556Z,3.40
2018-12-08T01:21:34.175Z,2.47
2018-12-08T01:24:03.360Z,2.10
2018-12-08T01:26:32.800Z,2.30
2018-12-08T01:29:01.600Z,2.10
2018-12-08T01:31:30.277Z,2.30
2018-12-08T01:33:58.662Z,2.67
2018-12-08T01:36:27.417Z,2.50
2018-12-08T01:38:56.141Z,2.33
2018-12-08T01:41:25.412Z,2.13
2018-12-08T01:43:53.777Z,2.63
2018-12-08T01:46:22.163Z,2.43
2018-12-08T01:48:50.550Z,2.47
2018-12-08T01:51:18.935Z,2.77
2018-12-08T01:53:47.898Z,3.07
2018-12-08T01:56:16.296Z,2.77
2018-12-08T01:58:44.908Z,3.10
2018-12-08T02:01:13.280Z,3.13
2018-12-08T02:03:42.264Z,3.00
2018-12-08T02:06:10.957Z,3.00
2018-12-08T02:08:43.992Z,3.10
2018-12-08T02:11:13.622Z,3.40
2018-12-08T02:13:42.648Z,2.90
2018-12-08T02:16:11.682Z,2.90
2018-12-08T02:18:43.389Z,2.70
2018-12-08T02:21:11.819Z,3.43
2018-12-08T02:23:41.025Z,2.63
2018-12-08T02:26:09.939Z,2.47
2018-12-08T02:28:39.677Z,3.10
2018-12-08T02:31:08.026Z,2.97
2018-12-08T02:33:36.381Z,3.20
2018-12-08T02:36:05.209Z,2.90
2018-12-08T02:38:33.576Z,2.03
2018-12-08T02:41:01.936Z,2.73
2018-12-08T02:43:30.300Z,2.63
2018-12-08T02:45:59.646Z,2.83
2018-12-08T02:48:28.939Z,2.73
2018-12-08T02:50:58.358Z,2.40
2018-12-08T02:53:29.061Z,2.90
2018-12-08T02:55:57.655Z,2.67
2018-12-08T02:58:26.081Z,3.00
2018-12-08T03:00:55.287Z,3.13
2018-12-08T03:03:23.663Z,2.83
2018-12-08T03:05:53.078Z,2.27
2018-12-08T03:08:21.478Z,3.57
2018-12-08T03:10:50.478Z,3.43
2018-12-08T03:13:20.324Z,2.83
2018-12-08T03:15:48.734Z,3.23
2018-12-08T03:18:17.167Z,3.33
2018-12-08T03:20:45.592Z,3.33
2018-12-08T03:23:14.003Z,2.77
2018-12-08T03:25:43.637Z,3.40
2018-12-08T03:28:12.255Z,2.83
2018-12-08T03:30:40.920Z,2.80
2018-12-08T03:33:09.542Z,3.53
2018-12-08T03:35:38.637Z,2.47
2018-12-08T03:38:06.993Z,3.03
2018-12-08T03:40:35.796Z,2.37
2018-12-08T03:43:05.698Z,3.57
2018-12-08T03:45:35.200Z,2.97
2018-12-08T03:48:03.562Z,3.27
2018-12-08T03:50:33.738Z,2.90
2018-12-08T03:53:02.738Z,2.83
2018-12-08T03:55:31.583Z,3.33
2018-12-08T03:58:00.022Z,2.73
2018-12-08T04:00:28.829Z,3.40
2018-12-08T04:02:57.195Z,3.07
2018-12-08T04:05:25.574Z,2.93
2018-12-08T04:07:54.242Z,3.00
2018-12-08T04:10:22.875Z,3.07
2018-12-08T04:12:51.373Z,2.50
2018-12-08T04:15:19.967Z,2.90
2018-12-08T04:17:49.071Z,3.07
2018-12-08T04:20:17.513Z,2.17
2018-12-08T04:22:46.862Z,2.70
2018-12-08T04:25:15.707Z,3.00
2018-12-08T04:27:45.573Z,3.10
2018-12-08T04:30:14.245Z,3.10
2018-12-08T04:32:42.954Z,2.80
2018-12-08T04:35:11.401Z,2.83
2018-12-08T04:37:40.938Z,3.47
2018-12-08T04:40:10.180Z,3.50
2018-12-08T04:42:39.488Z,2.57
2018-12-08T04:45:07.868Z,2.87
2018-12-08T04:47:36.234Z,3.23
2018-12-08T04:50:06.040Z,3.40
2018-12-08T04:52:35.364Z,3.13
2018-12-08T04:55:05.595Z,3.13
2018-12-08T04:57:34.008Z,3.50
2018-12-08T05:00:02.503Z,3.83
2018-12-08T05:02:31.597Z,3.03
2018-12-08T05:05:00.593Z,2.90
2018-12-08T05:07:29.448Z,2.90
2018-12-08T05:09:58.816Z,3.57
2018-12-08T05:12:27.402Z,2.47
2018-12-08T05:14:56.014Z,3.20
2018-12-08T05:17:25.796Z,3.87
2018-12-08T05:19:54.840Z,2.73
2018-12-08T05:22:23.247Z,3.47
2018-12-08T05:24:52.547Z,3.10
2018-12-08T05:27:21.682Z,4.10
2018-12-08T05:29:50.058Z,3.03
2018-12-08T05:32:18.881Z,3.73
2018-12-08T05:34:48.530Z,3.43
2018-12-08T05:37:16.908Z,3.33
2018-12-08T05:39:45.302Z,2.70
2018-12-08T05:42:13.693Z,3.17
2018-12-08T05:44:42.109Z,3.13
2018-12-08T05:47:11.136Z,4.10
2018-12-08T05:49:40.607Z,3.07
2018-12-08T05:52:10.355Z,2.47
2018-12-08T05:54:39.589Z,3.03
2018-12-08T05:57:08.334Z,2.93
2018-12-08T05:59:37.715Z,2.77
2018-12-08T06:02:07.059Z,3.27
2018-12-08T06:04:35.496Z,3.07
2018-12-08T06:07:04.553Z,3.27
2018-12-08T06:09:33.664Z,3.03
2018-12-08T06:12:04.393Z,2.27
2018-12-08T06:14:32.743Z,1.93
2018-12-08T06:17:01.137Z,3.27
2018-12-08T06:19:30.409Z,2.53
2018-12-08T06:21:59.435Z,2.47
2018-12-08T06:24:28.567Z,3.03
2018-12-08T06:27:10.610Z,2.03
2018-12-08T06:29:45.230Z,2.23
2018-12-08T06:32:15.507Z,2.53
2018-12-08T06:34:44.706Z,2.80
2018-12-08T06:37:15.250Z,2.73
2018-12-08T06:39:44.624Z,3.70
2018-12-08T06:42:13.567Z,2.40
2018-12-08T06:44:43.897Z,2.93
2018-12-08T06:47:14.250Z,4.73
2018-12-08T06:49:44.399Z,2.50
2018-12-08T06:52:15.520Z,2.97
2018-12-08T06:54:49.130Z,3.53
2018-12-08T06:57:19.224Z,2.43
2018-12-08T06:59:51.280Z,2.57
2018-12-08T07:02:24.246Z,3.40
2018-12-08T07:07:34.686Z,1.30
2018-12-08T07:10:07.828Z,3.30
2018-12-08T07:12:38.925Z,3.27
2018-12-08T07:15:09.489Z,2.93
2018-12-08T07:17:39.546Z,3.20
2018-12-08T07:20:11.719Z,2.40
2018-12-08T07:22:42.149Z,3.00
2018-12-08T07:25:10.562Z,1.40
2018-12-08T07:27:43.260Z,2.67
2018-12-08T07:30:13.915Z,2.63
2018-12-08T07:32:43.029Z,2.90
2018-12-08T07:35:11.682Z,2.50
2018-12-08T07:37:47.279Z,2.77
2018-12-08T07:40:22.858Z,2.37
2018-12-08T07:42:57.619Z,3.57
2018-12-08T07:45:31.600Z,3.40
2018-12-08T07:48:07.393Z,3.00
2018-12-08T07:53:17.414Z,2.90
2018-12-08T07:55:48.410Z,2.77
2018-12-08T07:58:18.280Z,3.10
2018-12-08T08:00:47.882Z,3.20
2018-12-08T08:03:16.816Z,2.93
2018-12-08T08:05:46.994Z,2.07
2018-12-08T08:08:20.966Z,2.87
2018-12-08T08:10:57.517Z,2.83
2018-12-08T08:13:26.096Z,3.00
2018-12-08T08:15:58.361Z,3.77
2018-12-08T08:18:27.909Z,3.33
2018-12-08T08:21:01.785Z,3.33
2018-12-08T08:23:30.195Z,2.53
2018-12-08T08:26:00.379Z,3.03
2018-12-08T08:28:29.161Z,2.63
2018-12-08T08:30:59.125Z,3.17
2018-12-08T08:33:28.715Z,2.83
2018-12-08T08:35:57.701Z,3.37
2018-12-08T08:38:26.091Z,3.37
2018-12-08T08:40:54.498Z,3.80
2018-12-08T08:43:23.105Z,3.00
2018-12-08T08:45:51.489Z,2.80
2018-12-08T08:48:20.808Z,2.83
2018-12-08T08:50:54.977Z,3.00
2018-12-08T08:53:23.387Z,2.50
2018-12-08T08:55:52.896Z,3.50
2018-12-08T08:58:21.307Z,3.07
2018-12-08T09:00:52.190Z,3.43
2018-12-08T09:03:21.344Z,2.67
2018-12-08T09:05:50.702Z,3.23
2018-12-08T09:08:19.959Z,2.83
2018-12-08T09:10:51.462Z,3.87
2018-12-08T09:13:21.156Z,3.00
2018-12-08T09:15:50.707Z,2.17
2018-12-08T09:18:19.131Z,2.33
2018-12-08T09:20:47.520Z,3.77
2018-12-08T09:23:15.912Z,3.77
2018-12-08T09:25:45.048Z,3.57
2018-12-08T09:28:13.772Z,2.83
2018-12-08T09:30:42.217Z,3.20
2018-12-08T09:33:11.044Z,2.67
2018-12-08T09:35:40.238Z,3.00
2018-12-08T09:38:08.613Z,2.80
2018-12-08T09:40:37.439Z,2.73
2018-12-08T09:43:05.821Z,3.13
2018-12-08T09:45:41.627Z,2.37
2018-12-08T09:48:05.108Z,2.50
2018-12-08T09:50:33.463Z,3.23
2018-12-08T09:53:14.776Z,2.37
2018-12-08T09:55:43.566Z,3.63
2018-12-08T09:58:12.265Z,3.50
2018-12-08T10:00:41.913Z,2.63
2018-12-08T10:03:10.300Z,2.53
2018-12-08T10:05:39.099Z,4.00
2018-12-08T10:08:07.523Z,3.33
2018-12-08T10:10:36.325Z,2.80
2018-12-08T10:13:04.980Z,2.50
2018-12-08T10:15:33.377Z,2.27
2018-12-08T10:18:01.746Z,2.07
2018-12-08T10:20:30.097Z,2.30
2018-12-08T10:22:58.640Z,1.63
2018-12-08T10:25:27.740Z,2.10
2018-12-08T10:27:56.443Z,1.93
2018-12-08T10:30:24.827Z,2.43
2018-12-08T10:32:53.211Z,2.20
2018-12-08T10:35:21.607Z,2.60
2018-12-08T10:37:50.041Z,2.10
2018-12-08T10:40:18.421Z,1.93
2018-12-08T10:42:46.759Z,1.97
2018-12-08T10:45:15.617Z,2.17
2018-12-08T10:47:44.456Z,2.20
2018-12-08T10:50:13.239Z,1.47
2018-12-08T10:52:41.641Z,1.87
2018-12-08T10:55:10.433Z,2.17
2018-12-08T10:57:38.786Z,2.80
2018-12-08T11:00:13.434Z,2.97
2018-12-08T11:02:46.046Z,2.10
2018-12-08T11:05:14.448Z,2.50
2018-12-08T11:07:42.828Z,2.37
2018-12-08T11:10:13.383Z,2.20
2018-12-08T11:12:41.806Z,2.10
2018-12-08T11:15:10.434Z,2.37
2018-12-08T11:18:41.632Z,2.17
2018-12-08T11:21:10.031Z,2.20
2018-12-08T11:23:39.394Z,2.17
2018-12-08T11:26:08.919Z,1.73
2018-12-08T11:28:37.615Z,1.70
2018-12-08T11:31:08.404Z,2.27
2018-12-08T11:33:38.183Z,1.63
2018-12-08T11:36:06.999Z,2.30
2018-12-08T11:38:35.849Z,2.10
2018-12-08T11:41:05.438Z,1.77
2018-12-08T11:43:34.654Z,2.50
2018-12-08T11:46:03.283Z,2.37
2018-12-08T11:48:33.638Z,2.13
2018-12-08T11:51:02.274Z,2.07
2018-12-08T11:53:32.803Z,1.80
2018-12-08T11:56:01.882Z,2.20
2018-12-08T11:58:30.415Z,2.93
2018-12-08T12:01:00.723Z,2.23
2018-12-08T12:03:32.750Z,2.60
2018-12-08T12:06:02.293Z,3.30
2018-12-08T12:08:31.937Z,1.90
2018-12-08T12:11:00.624Z,2.43
2018-12-08T12:13:29.876Z,2.83
2018-12-08T12:15:58.323Z,2.60
2018-12-08T12:18:27.316Z,2.53
2018-12-08T12:20:56.709Z,2.60
2018-12-08T12:23:27.043Z,1.60
2018-12-08T12:25:56.579Z,2.83
2018-12-08T12:28:25.047Z,1.27
2018-12-08T12:30:54.001Z,2.27
2018-12-08T12:33:22.932Z,1.87
2018-12-08T12:35:52.987Z,2.33
2018-12-08T12:38:21.399Z,1.70
2018-12-08T12:40:51.029Z,2.10
2018-12-08T12:43:20.610Z,2.50
2018-12-08T12:45:49.496Z,2.03
2018-12-08T12:48:17.950Z,2.13
2018-12-08T12:53:28.295Z,3.17
2018-12-08T12:55:59.084Z,2.40
2018-12-08T12:58:27.895Z,2.30
2018-12-08T13:00:56.872Z,1.70
2018-12-08T13:03:25.324Z,3.17
2018-12-08T13:05:56.496Z,2.10
2018-12-08T13:08:31.537Z,2.17
2018-12-08T13:11:02.374Z,1.90
2018-12-08T13:13:30.986Z,2.13
2018-12-08T13:16:00.041Z,2.77
2018-12-08T13:18:29.486Z,3.33
2018-12-08T13:20:57.891Z,1.87
2018-12-08T13:23:26.887Z,2.80
2018-12-08T13:25:56.235Z,1.90
2018-12-08T13:28:24.807Z,2.53
2018-12-08T13:30:55.050Z,3.17
2018-12-08T13:33:24.324Z,2.30
2018-12-08T13:35:58.525Z,2.23
2018-12-08T13:38:29.954Z,2.30
2018-12-08T13:41:01.544Z,2.47
2018-12-08T13:43:33.215Z,2.60
2018-12-08T13:46:03.710Z,2.33
2018-12-08T13:48:33.890Z,2.33
2018-12-08T13:51:04.757Z,2.77
2018-12-08T13:53:36.801Z,3.17
2018-12-08T13:56:07.689Z,3.60
2018-12-08T13:58:36.957Z,2.57
2018-12-08T14:01:06.613Z,2.07
2018-12-08T14:03:35.897Z,3.17
2018-12-08T14:06:04.952Z,3.23
2018-12-08T14:08:33.699Z,3.73
2018-12-08T14:12:33.499Z,3.00
2018-12-08T14:15:05.919Z,4.30
2018-12-08T14:17:39.666Z,3.87
2018-12-08T14:20:20.470Z,3.20
2018-12-08T14:22:52.604Z,3.03
2018-12-08T14:25:21.492Z,4.17
2018-12-08T14:27:49.860Z,3.50
2018-12-08T14:30:19.664Z,3.97
2018-12-08T14:32:48.284Z,4.80
2018-12-08T14:35:17.894Z,4.07
2018-12-08T14:37:49.048Z,3.20
2018-12-08T14:40:21.141Z,3.97
2018-12-08T14:42:50.907Z,3.63
2018-12-08T14:45:22.307Z,4.37
2018-12-08T14:47:53.079Z,3.97
2018-12-08T14:50:23.779Z,3.07
2018-12-08T14:52:53.106Z,4.03
2018-12-08T14:55:22.437Z,4.07
2018-12-08T14:57:52.028Z,3.23
2018-12-08T15:03:09.074Z,2.93
2018-12-08T15:05:37.824Z,3.37
2018-12-08T15:08:06.580Z,4.07
2018-12-08T15:10:35.906Z,3.83
2018-12-08T15:13:04.336Z,3.90
2018-12-08T15:15:32.987Z,2.70
2018-12-08T15:18:01.409Z,2.53
2018-12-08T15:20:30.671Z,3.60
2018-12-08T15:23:00.191Z,2.77
2018-12-08T15:25:40.579Z,2.10
2018-12-08T15:28:11.889Z,2.97
2018-12-08T15:30:41.395Z,3.40
2018-12-08T15:33:11.515Z,2.97
2018-12-08T15:35:43.059Z,3.87
2018-12-08T15:38:12.450Z,4.77
2018-12-08T15:40:44.122Z,3.73
2018-12-08T15:43:13.808Z,4.00
2018-12-08T15:45:43.235Z,4.03
2018-12-08T15:48:11.664Z,3.33
2018-12-08T15:50:40.822Z,3.70
2018-12-08T15:53:09.495Z,3.93
2018-12-08T15:55:38.313Z,3.40
2018-12-08T15:58:07.573Z,3.07
2018-12-08T16:00:35.968Z,2.93
2018-12-08T16:03:04.422Z,3.70
2018-12-08T16:05:32.791Z,3.93
2018-12-08T16:08:01.179Z,3.10
2018-12-08T16:10:29.552Z,3.67
2018-12-08T16:12:58.432Z,4.20
2018-12-08T16:15:28.965Z,3.07
2018-12-08T16:17:57.360Z,3.33
2018-12-08T16:20:25.742Z,4.33
2018-12-08T16:22:54.841Z,4.00
2018-12-08T16:25:23.685Z,4.60
2018-12-08T16:27:54.734Z,4.03
2018-12-08T16:30:24.776Z,3.90
2018-12-08T16:32:54.338Z,5.00
2018-12-08T16:35:23.996Z,3.10
2018-12-08T16:37:56.966Z,5.23
2018-12-08T16:40:22.806Z,3.50
2018-12-08T16:42:51.192Z,3.50
2018-12-08T16:45:20.644Z,3.67
2018-12-08T16:47:49.017Z,3.23
2018-12-08T16:50:18.637Z,5.17
2018-12-08T16:52:47.045Z,4.20
2018-12-08T16:55:15.530Z,3.70
2018-12-08T16:57:45.430Z,5.10
2018-12-08T17:00:17.591Z,4.20
2018-12-08T17:02:47.969Z,4.07
2018-12-08T17:05:16.805Z,4.27
2018-12-08T17:07:45.541Z,3.43
2018-12-08T17:10:14.874Z,3.47
2018-12-08T17:12:43.777Z,3.73
2018-12-08T17:15:13.225Z,3.50
2018-12-08T17:17:41.609Z,3.27
2018-12-08T17:20:11.615Z,3.00
2018-12-08T17:22:40.445Z,3.20
2018-12-08T17:25:08.847Z,3.17
2018-12-08T17:27:39.066Z,3.43
2018-12-08T17:30:08.348Z,2.97
2018-12-08T17:32:39.380Z,2.70
2018-12-08T17:35:08.937Z,2.77
2018-12-08T17:37:37.720Z,4.00
2018-12-08T17:45:04.952Z,3.57
2018-12-08T17:47:34.720Z,3.27
2018-12-08T17:50:04.982Z,4.37
2018-12-08T17:52:36.565Z,5.00
2018-12-08T17:55:07.089Z,5.23
2018-12-08T17:57:35.808Z,5.00
2018-12-08T18:00:07.649Z,4.37
2018-12-08T18:02:36.758Z,4.17
2018-12-08T18:05:06.796Z,5.17
2018-12-08T18:07:35.801Z,3.67
2018-12-08T18:10:06.794Z,3.50
2018-12-08T18:12:37.240Z,3.03
2018-12-08T18:15:07.862Z,2.23
2018-12-08T18:17:37.078Z,2.10
2018-12-08T18:20:07.930Z,1.37
2018-12-08T18:22:37.989Z,1.67
2018-12-08T18:25:09.193Z,1.40
2018-12-08T18:27:42.984Z,1.70
2018-12-08T18:30:12.962Z,1.70
2018-12-08T18:32:43.970Z,1.30
2018-12-08T18:35:15.963Z,1.57
2018-12-08T18:37:45.713Z,1.57
2018-12-08T18:40:14.269Z,1.07
2018-12-08T18:42:44.687Z,1.40
2018-12-08T18:45:19.885Z,1.00
2018-12-08T18:47:51.745Z,1.10
2018-12-08T18:50:22.059Z,0.80
2018-12-08T18:52:51.301Z,0.90
2018-12-08T18:55:20.700Z,0.70
2018-12-08T18:57:51.470Z,0.83
2018-12-08T19:00:25.966Z,1.73
2018-12-08T19:02:55.649Z,1.03
2018-12-08T19:05:24.792Z,1.10
2018-12-08T19:07:54.650Z,1.53
2018-12-08T19:10:23.359Z,1.47
2018-12-08T19:12:52.030Z,1.73
2018-12-08T19:15:20.395Z,1.40
2018-12-08T19:17:49.394Z,1.63
2018-12-08T19:20:19.112Z,2.13
2018-12-08T19:22:48.334Z,2.03
2018-12-08T19:25:17.210Z,1.47
2018-12-08T19:27:46.074Z,2.03
2018-12-08T19:30:14.468Z,1.60
2018-12-08T19:32:43.269Z,1.37
2018-12-08T19:35:13.409Z,2.47
2018-12-08T19:37:42.050Z,2.00
2018-12-08T19:40:11.334Z,2.97
2018-12-08T19:42:39.959Z,2.60
2018-12-08T19:45:12.891Z,2.93
2018-12-08T19:47:43.141Z,3.43
2018-12-08T19:50:11.612Z,2.67
2018-12-08T19:52:45.019Z,4.67
2018-12-08T19:55:14.852Z,3.27
2018-12-08T19:57:46.989Z,3.17
2018-12-08T20:00:16.259Z,2.63
2018-12-08T20:02:45.488Z,3.27
2018-12-08T20:05:15.028Z,3.03
2018-12-08T20:07:45.312Z,2.27
2018-12-08T20:10:15.622Z,3.00
2018-12-08T20:12:47.959Z,1.70
2018-12-08T20:15:16.681Z,2.33
2018-12-08T20:17:45.665Z,3.60
2018-12-08T20:20:14.506Z,3.37
2018-12-08T20:22:49.994Z,3.60
2018-12-08T20:25:18.608Z,3.00
2018-12-08T20:27:47.876Z,3.33
2018-12-08T20:30:16.590Z,2.77
2018-12-08T20:32:45.092Z,3.63
2018-12-08T20:35:13.610Z,4.37
2018-12-08T20:37:43.528Z,2.77
2018-12-08T20:40:13.170Z,2.90
2018-12-08T20:42:43.558Z,5.73
2018-12-08T20:45:12.951Z,3.70
2018-12-08T20:47:41.378Z,4.27
2018-12-08T20:50:10.634Z,3.80
2018-12-08T20:52:40.176Z,3.70
2018-12-08T20:55:09.744Z,3.93
2018-12-08T20:57:39.203Z,2.47
2018-12-08T21:00:08.463Z,3.07
2018-12-08T21:02:36.823Z,4.60
2018-12-08T21:05:05.945Z,3.27
2018-12-08T21:07:38.213Z,4.73
2018-12-08T21:10:07.127Z,3.60
2018-12-08T21:12:37.027Z,4.80
2018-12-08T21:15:07.550Z,2.80
2018-12-08T21:17:36.333Z,4.20
2018-12-08T21:20:07.654Z,4.63
2018-12-08T21:22:37.112Z,3.97
2018-12-08T21:25:06.818Z,3.53
2018-12-08T21:27:38.358Z,4.87
2018-12-08T21:30:08.366Z,7.20
2018-12-08T21:32:36.978Z,4.07
2018-12-08T21:35:06.875Z,4.70
2018-12-08T21:37:35.338Z,5.07
2018-12-08T21:40:08.348Z,4.83
2018-12-08T21:42:37.269Z,4.43
2018-12-08T21:45:07.148Z,4.53
2018-12-08T21:47:37.000Z,5.73
2018-12-08T21:50:07.711Z,4.90
2018-12-08T21:52:36.116Z,5.07
2018-12-08T21:55:08.611Z,5.30
2018-12-08T21:57:37.023Z,5.33
2018-12-08T22:00:07.409Z,4.90
2018-12-08T22:02:37.997Z,4.83
2018-12-08T22:05:06.875Z,3.80
2018-12-08T22:07:36.802Z,5.07
2018-12-08T22:11:36.573Z,3.97
2018-12-08T22:14:05.756Z,3.13
2018-12-08T22:16:36.776Z,4.00
2018-12-08T22:19:06.423Z,4.50
2018-12-08T22:21:36.620Z,4.60
2018-12-08T22:24:07.961Z,4.07
2018-12-08T22:26:36.362Z,4.40
2018-12-08T22:29:05.156Z,4.47
2018-12-08T22:31:33.585Z,5.47
2018-12-08T22:34:02.910Z,4.23
2018-12-08T22:36:32.674Z,4.40
2018-12-08T22:39:02.381Z,3.33
2018-12-08T22:41:30.736Z,5.07
2018-12-08T22:43:59.073Z,4.80
2018-12-08T22:46:27.863Z,5.13
2018-12-08T22:48:56.872Z,4.87
2018-12-08T22:51:25.243Z,6.77
2018-12-08T22:53:53.679Z,7.23
2018-12-08T22:56:22.768Z,6.93
2018-12-08T22:58:51.166Z,6.50
2018-12-08T23:01:20.318Z,4.73
2018-12-08T23:03:49.671Z,5.33
2018-12-08T23:06:18.039Z,5.90
2018-12-08T23:08:46.473Z,5.33
2018-12-08T23:11:14.853Z,6.43
2018-12-08T23:13:43.226Z,5.90
2018-12-08T23:16:12.458Z,3.80
2018-12-08T23:18:40.846Z,4.87
2018-12-08T23:21:09.215Z,3.80
2018-12-08T23:23:38.770Z,3.20
2018-12-08T23:26:07.141Z,4.13
2018-12-08T23:28:36.494Z,4.17
2018-12-08T23:31:07.060Z,5.67
2018-12-08T23:33:37.758Z,3.00
2018-12-08T23:36:07.081Z,4.87
2018-12-08T23:38:35.434Z,5.10
2018-12-08T23:41:03.891Z,2.83
2018-12-08T23:43:33.134Z,3.73
2018-12-08T23:46:01.740Z,3.33
2018-12-08T23:48:30.165Z,3.27
2018-12-08T23:51:00.005Z,3.10
2018-12-08T23:53:28.373Z,2.60
2018-12-08T23:55:56.751Z,2.50
2018-12-08T23:58:25.551Z,3.90
